Terminal Aerodrome Forecast
Issued by NWS San Angelo, TX

Home | Current Version | Previous Version | Text Only | Print | Product List | Glossary On
Versions: 1 2 3 4 5 6 7 8 9 10 11 12 13 14 15 16 17 18 19
000
FTUS44 KSJT 271100
TAFSJT
TAF
KSJT 271130Z 2712/2812 01012KT P6SM BKN035
     FM271900 01011KT P6SM SCT025 OVC050
     FM280100 01008KT P6SM BKN080=

USA.gov is the U.S. government's official web portal to all federal, state and local government web resources and services.